Time;durP1;ratioP1;P1;durP2;ratioP2;P2;SDS_P1;SDS_P2;PMS_P1;PMS_P2;Temp;Humidity;BMP_temperature;BMP_pressure;BME280_temperature;BME280_humidity;BME280_pressure;Samples;Min_cycle;Max_cycle;Signal;HPM_P1;HPM_P2
2022/10/26 00:04:35;;;;;;;21.40;12.90;;;;;;;14.91;62.87;99340.44;227405;1231;139401;-64
2022/10/26 00:09:38;;;;;;;19.60;12.60;;;;;;;14.91;63.19;99340.63;227360;1241;141179;-63
2022/10/26 00:14:41;;;;;;;20.60;12.70;;;;;;;14.90;63.27;99342.98;226541;1234;139446;-64
2022/10/26 00:19:44;;;;;;;18.60;12.50;;;;;;;14.91;63.34;99351.19;226503;1233;139755;-63
2022/10/26 00:24:47;;;;;;;20.20;13.00;;;;;;;14.87;63.22;99358.75;226730;1238;140413;-63
2022/10/26 00:29:50;;;;;;;20.30;12.20;;;;;;;14.86;63.53;99361.73;226230;1243;140073;-63
2022/10/26 00:34:53;;;;;;;21.60;12.60;;;;;;;14.89;63.41;99359.50;226281;1237;140109;-64
2022/10/26 00:39:56;;;;;;;23.10;14.00;;;;;;;14.96;63.44;99358.16;226544;1238;140079;-63
2022/10/26 00:45:03;;;;;;;24.40;14.00;;;;;;;15.01;63.76;99352.77;227392;1241;139283;-63
2022/10/26 00:50:20;;;;;;;23.20;15.20;;;;;;;15.01;63.51;99355.05;226377;1237;139153;-61
2022/10/26 00:55:28;;;;;;;24.20;14.60;;;;;;;14.96;63.49;99360.98;227551;1234;139501;-62
2022/10/26 01:00:31;;;;;;;23.30;15.30;;;;;;;14.90;63.37;99351.77;226516;1248;138990;-62
2022/10/26 01:05:38;;;;;;;23.80;15.60;;;;;;;14.84;63.41;99360.08;227319;1223;139220;-62
2022/10/26 01:10:41;;;;;;;23.80;15.30;;;;;;;14.75;63.40;99364.66;227430;1234;139534;-62
2022/10/26 01:16:01;;;;;;;24.90;13.20;;;;;;;14.69;63.61;99365.83;226295;1237;140264;-61
2022/10/26 01:21:06;;;;;;;22.00;13.00;;;;;;;14.74;63.86;99369.20;226286;1244;140142;-62
2022/10/26 01:26:20;;;;;;;24.20;13.50;;;;;;;14.82;64.05;99366.27;227366;1234;140078;-64
2022/10/26 01:31:40;;;;;;;23.80;13.60;;;;;;;14.87;64.09;99362.02;226297;1238;139418;-63
2022/10/26 01:36:51;;;;;;;21.50;13.70;;;;;;;14.85;63.73;99358.90;226266;1244;139363;-64
2022/10/26 01:41:59;;;;;;;22.50;13.90;;;;;;;14.79;63.70;99358.33;227289;1233;139192;-64
2022/10/26 01:47:03;;;;;;;21.60;13.60;;;;;;;14.76;63.93;99361.60;226427;1249;139779;-64
2022/10/26 01:52:09;;;;;;;22.10;14.30;;;;;;;14.69;63.71;99359.25;226582;1241;140034;-63
2022/10/26 01:57:13;;;;;;;;;;;;;;;14.63;63.88;99361.09;226474;1234;139638;-63
2022/10/26 02:02:22;;;;;;;22.70;12.60;;;;;;;14.60;63.78;99359.86;226361;1241;126109;-62
2022/10/26 02:07:50;;;;;;;22.70;13.50;;;;;;;14.60;63.90;99362.59;227437;1234;140021;-65
2022/10/26 02:13:09;;;;;;;21.50;13.20;;;;;;;14.58;64.05;99353.27;226728;1241;139024;-64
2022/10/26 02:18:31;;;;;;;20.80;14.00;;;;;;;14.57;63.91;99352.41;226493;1241;139648;-65
2022/10/26 02:23:38;;;;;;;21.20;13.40;;;;;;;14.50;63.95;99355.45;226271;1243;139414;-65
2022/10/26 02:28:45;;;;;;;21.60;13.30;;;;;;;14.46;64.16;99358.42;226401;1236;140222;-63
2022/10/26 02:33:51;;;;;;;19.70;13.50;;;;;;;14.42;64.12;99356.34;227278;1227;139278;-60
2022/10/26 02:38:56;;;;;;;22.60;12.90;;;;;;;14.38;64.08;99356.33;226405;1238;139458;-64
2022/10/26 02:44:03;;;;;;;27.30;13.50;;;;;;;14.37;64.18;99360.28;226516;1240;140253;-62
2022/10/26 02:49:06;;;;;;;22.70;13.40;;;;;;;14.38;64.15;99359.88;226349;1236;139881;-60
2022/10/26 02:54:18;;;;;;;18.20;12.60;;;;;;;14.36;64.17;99363.72;226178;1244;139944;-62
2022/10/26 02:59:25;;;;;;;20.20;12.60;;;;;;;14.35;64.21;99363.66;227420;1234;140366;-64
2022/10/26 03:04:32;;;;;;;22.50;13.70;;;;;;;14.30;64.13;99366.73;226464;1233;139445;-65
2022/10/26 03:09:36;;;;;;;30.90;13.20;;;;;;;14.19;64.13;99373.88;226698;1238;139354;-61
2022/10/26 03:14:40;;;;;;;28.80;13.40;;;;;;;14.07;64.02;99379.21;227498;1230;139543;-61
2022/10/26 03:19:43;;;;;;;26.10;12.90;;;;;;;14.03;64.32;99383.46;226404;1241;139364;-60
2022/10/26 03:24:46;;;;;;;36.10;14.60;;;;;;;14.03;64.28;99379.38;226179;1238;140094;-61
2022/10/26 03:29:49;;;;;;;27.30;12.30;;;;;;;13.98;64.12;99385.73;226672;1240;140727;-61
2022/10/26 03:34:52;;;;;;;19.50;12.00;;;;;;;13.98;64.48;99387.19;226551;1248;139575;-61
2022/10/26 03:39:55;;;;;;;20.90;11.90;;;;;;;14.02;64.82;99395.13;227446;1234;139209;-62
2022/10/26 03:44:57;;;;;;;19.10;11.30;;;;;;;14.06;64.87;99400.37;226328;1240;139169;-61
2022/10/26 03:50:00;;;;;;;35.50;24.40;;;;;;;14.03;64.83;99397.73;226353;1248;139606;-63
2022/10/26 03:55:04;;;;;;;26.20;14.80;;;;;;;14.05;65.08;99397.73;226657;1234;139536;-61
2022/10/26 04:00:09;;;;;;;169.70;119.10;;;;;;;14.06;65.04;99396.25;227338;1223;140419;-62
2022/10/26 04:05:16;;;;;;;19.70;11.00;;;;;;;14.11;65.02;99396.58;226325;1238;140895;-62
2022/10/26 04:10:19;;;;;;;21.30;11.90;;;;;;;14.20;65.08;99393.09;226463;1233;139753;-63
2022/10/26 04:15:23;;;;;;;20.10;11.40;;;;;;;14.17;64.80;99393.12;226323;1242;139409;-64
2022/10/26 04:20:27;;;;;;;19.80;11.20;;;;;;;14.12;64.69;99395.63;226132;1241;139508;-64
2022/10/26 04:25:31;;;;;;;22.30;11.50;;;;;;;14.08;64.61;99393.61;226584;1237;139838;-64
2022/10/26 04:30:36;;;;;;;25.00;16.10;;;;;;;14.04;64.81;99394.11;226248;1243;139578;-64
2022/10/26 04:35:39;;;;;;;22.70;13.40;;;;;;;14.02;64.91;99394.93;227393;1233;140523;-64
2022/10/26 04:40:42;;;;;;;19.60;10.90;;;;;;;13.98;64.76;99387.73;226508;1234;139292;-64
2022/10/26 04:45:45;;;;;;;19.40;12.10;;;;;;;13.91;64.52;99391.58;227461;1241;141141;-62
2022/10/26 04:50:48;;;;;;;32.70;16.60;;;;;;;13.84;64.59;99393.33;226344;1242;139551;-61
2022/10/26 04:55:58;;;;;;;30.50;13.00;;;;;;;13.74;64.27;99396.52;226285;1234;139915;-62
2022/10/26 05:01:01;;;;;;;24.00;12.40;;;;;;;13.59;64.25;99396.50;226746;1241;140177;-63
2022/10/26 05:06:05;;;;;;;29.00;13.20;;;;;;;13.43;64.34;99396.86;227417;1234;139498;-61
2022/10/26 05:11:08;;;;;;;24.70;12.50;;;;;;;13.31;64.31;99404.12;226170;1238;139406;-62
2022/10/26 05:16:11;;;;;;;27.80;12.90;;;;;;;13.17;64.58;99409.09;227348;1237;140525;-65
2022/10/26 05:21:18;;;;;;;25.10;12.50;;;;;;;13.07;64.65;99412.41;226587;1234;139054;-61
2022/10/26 05:26:22;;;;;;;24.60;12.10;;;;;;;13.04;64.79;99421.02;226170;1241;140363;-64
2022/10/26 05:31:25;;;;;;;23.10;12.80;;;;;;;13.04;64.79;99426.55;226287;1243;140272;-64
2022/10/26 05:36:28;;;;;;;96.80;56.20;;;;;;;13.01;65.01;99430.29;227217;1229;139456;-60
2022/10/26 05:41:32;;;;;;;33.80;15.40;;;;;;;13.01;65.09;99432.77;226311;1240;140410;-63
2022/10/26 05:46:35;;;;;;;28.60;14.40;;;;;;;13.01;65.03;99437.60;226468;1241;139957;-62
2022/10/26 05:51:38;;;;;;;31.80;14.70;;;;;;;12.97;65.36;99436.25;226260;1244;139767;-61
2022/10/26 05:56:41;;;;;;;43.10;15.90;;;;;;;12.93;65.47;99435.46;226364;1238;139186;-65
2022/10/26 06:02:05;;;;;;;27.90;16.00;;;;;;;12.90;65.49;99441.86;226798;1237;139374;-64
2022/10/26 06:07:27;;;;;;;41.40;23.70;;;;;;;13.01;66.30;99451.14;227496;1226;140156;-62
2022/10/26 06:12:30;;;;;;;29.30;13.90;;;;;;;13.16;66.09;99456.05;226138;1234;139603;-62
2022/10/26 06:17:58;;;;;;;32.30;15.60;;;;;;;13.23;65.81;99460.73;226202;1241;139485;-62
2022/10/26 06:23:27;;;;;;;33.40;18.00;;;;;;;13.23;65.92;99460.56;227353;1234;140541;-61
2022/10/26 06:28:56;;;;;;;31.80;17.00;;;;;;;13.28;66.30;99466.16;226251;1237;140133;-61
2022/10/26 06:33:59;;;;;;;34.70;17.70;;;;;;;13.35;66.32;99471.54;226521;1233;139623;-62
2022/10/26 06:39:10;;;;;;;34.10;16.80;;;;;;;13.37;66.24;99471.95;226612;1241;140058;-63
2022/10/26 06:44:21;;;;;;;30.00;17.00;;;;;;;13.38;66.29;99477.23;226217;1234;139341;-63
2022/10/26 06:49:33;;;;;;;35.50;23.70;;;;;;;13.48;66.40;99479.77;226326;1244;141880;-62
2022/10/26 06:54:53;;;;;;;22.70;15.60;;;;;;;13.63;66.79;99481.98;227389;1233;139817;-61
2022/10/26 07:00:21;;;;;;;25.30;16.80;;;;;;;13.75;66.62;99485.48;226556;1240;140895;-60
2022/10/26 07:05:24;;;;;;;23.30;15.10;;;;;;;13.83;66.62;99489.70;226459;1240;139426;-61
2022/10/26 07:10:27;;;;;;;24.90;15.30;;;;;;;13.89;66.48;99489.30;226151;1242;139709;-62
2022/10/26 07:15:30;;;;;;;20.80;13.10;;;;;;;14.03;66.68;99488.55;226416;1236;139340;-63
2022/10/26 07:20:38;;;;;;;23.40;12.30;;;;;;;14.17;66.65;99494.15;226215;1245;139496;-63
2022/10/26 07:25:41;;;;;;;20.70;11.50;;;;;;;14.30;66.61;99494.84;227413;1239;139688;-64
2022/10/26 07:30:44;;;;;;;28.30;12.40;;;;;;;14.46;66.45;99498.93;226600;1241;140482;-63
2022/10/26 07:35:47;;;;;;;27.30;12.10;;;;;;;14.60;66.39;99502.05;226178;1240;140172;-63
2022/10/26 07:40:53;;;;;;;24.70;11.70;;;;;;;14.76;66.44;99500.88;226160;1244;139398;-65
2022/10/26 07:45:56;;;;;;;;;;;;;;;14.93;66.32;99507.70;227375;1227;139299;-63
2022/10/26 07:51:00;;;;;;;19.50;11.00;;;;;;;15.05;66.02;99503.66;226591;1241;125534;-63
2022/10/26 07:56:05;;;;;;;22.30;10.60;;;;;;;15.18;66.11;99504.59;226192;1242;139160;-62
2022/10/26 08:01:14;;;;;;;20.60;10.90;;;;;;;15.33;65.84;99501.20;227556;1226;139470;-62
2022/10/26 08:06:20;;;;;;;24.30;10.70;;;;;;;15.44;65.63;99504.84;226513;1242;139861;-63
2022/10/26 08:11:23;;;;;;;20.10;9.70;;;;;;;15.52;65.48;99499.04;226439;1241;139672;-63
2022/10/26 08:16:26;;;;;;;23.50;10.70;;;;;;;15.68;65.20;99495.92;226462;1233;141945;-63
2022/10/26 08:21:29;;;;;;;19.20;10.40;;;;;;;15.81;65.05;99493.14;226300;1241;139737;-62
2022/10/26 08:26:48;;;;;;;20.50;10.00;;;;;;;15.93;64.96;99496.88;227438;1237;140300;-61
2022/10/26 08:31:51;;;;;;;20.70;9.20;;;;;;;16.00;64.82;99499.95;226291;1243;139767;-63
2022/10/26 08:36:54;;;;;;;24.80;9.90;;;;;;;16.11;64.76;99492.94;226123;1243;139128;-62
2022/10/26 08:42:24;;;;;;;12.50;8.10;;;;;;;16.22;64.52;99495.36;226193;1243;139990;-63
2022/10/26 08:47:33;;;;;;;16.30;7.30;;;;;;;16.29;64.29;99491.88;226245;1238;141174;-63
2022/10/26 08:52:52;;;;;;;13.90;7.00;;;;;;;16.34;63.80;99490.29;226576;1241;140046;-61
2022/10/26 08:57:56;;;;;;;204.00;123.00;;;;;;;16.40;63.82;99489.86;226257;1245;139551;-63
2022/10/26 09:02:59;;;;;;;25.70;13.10;;;;;;;16.49;63.65;99493.73;226394;1239;139872;-64
2022/10/26 09:08:35;;;;;;;14.60;6.90;;;;;;;16.62;63.55;99491.45;226326;1240;139492;-63
2022/10/26 09:13:38;;;;;;;15.50;7.40;;;;;;;16.79;63.09;99485.31;226311;1240;139513;-65
2022/10/26 09:19:00;;;;;;;15.90;6.90;;;;;;;16.97;63.21;99488.14;227394;1240;139232;-63
2022/10/26 09:24:15;;;;;;;15.50;6.00;;;;;;;17.16;63.09;99482.67;226598;1249;139432;-61
2022/10/26 09:29:19;;;;;;;11.90;5.50;;;;;;;17.28;62.72;99483.84;226304;1242;139213;-63
2022/10/26 09:34:28;;;;;;;20.70;6.80;;;;;;;17.35;62.26;99490.36;226322;1244;139246;-64
2022/10/26 09:39:45;;;;;;;11.10;4.60;;;;;;;17.42;62.02;99491.26;226447;1239;140545;-61
2022/10/26 09:44:58;;;;;;;10.50;4.60;;;;;;;17.48;61.74;99500.29;226545;1242;139601;-62
2022/10/26 09:50:17;;;;;;;12.20;4.60;;;;;;;17.52;61.37;99493.98;227315;1234;139592;-62
2022/10/26 09:55:21;;;;;;;29.50;20.50;;;;;;;17.61;61.20;99490.42;226383;1244;139190;-63
2022/10/26 10:00:27;;;;;;;11.30;4.30;;;;;;;17.68;60.94;99488.38;226541;1239;139246;-62
2022/10/26 10:05:32;;;;;;;6.30;3.60;;;;;;;17.72;60.61;99487.97;226201;1240;139353;-65
2022/10/26 10:11:00;;;;;;;9.30;3.50;;;;;;;17.83;60.42;99488.19;227285;1226;140162;-64
2022/10/26 10:16:22;;;;;;;6.50;3.30;;;;;;;17.98;60.32;99483.13;227158;1234;138955;-66
2022/10/26 10:21:38;;;;;;;6.60;3.00;;;;;;;18.15;59.96;99484.86;226553;1238;139548;-63
2022/10/26 10:27:11;;;;;;;5.90;2.70;;;;;;;18.26;59.52;99488.62;226389;1241;140129;-64
2022/10/26 10:32:23;;;;;;;10.30;3.40;;;;;;;18.32;59.19;99488.64;226203;1240;139144;-65
2022/10/26 10:37:33;;;;;;;5.50;2.70;;;;;;;18.40;59.08;99483.65;226308;1242;139517;-65
2022/10/26 10:42:40;;;;;;;8.50;2.90;;;;;;;18.48;58.89;99483.30;226449;1241;139025;-64
2022/10/26 10:48:12;;;;;;;8.50;2.50;;;;;;;18.55;58.49;99480.94;227392;1235;139066;-65
2022/10/26 10:53:28;;;;;;;4.30;1.80;;;;;;;18.59;58.09;99482.13;227419;1233;141260;-63
2022/10/26 10:58:48;;;;;;;4.20;1.40;;;;;;;18.61;57.68;99487.92;226232;1241;139166;-62
2022/10/26 11:04:26;;;;;;;3.50;2.10;;;;;;;18.63;57.44;99479.84;226315;1241;139198;-63
2022/10/26 11:09:35;;;;;;;6.30;2.20;;;;;;;18.65;57.21;99475.09;227249;1239;139295;-67
2022/10/26 11:14:42;;;;;;;9.60;2.50;;;;;;;18.70;56.96;99475.44;226457;1242;138531;-64
2022/10/26 11:19:56;;;;;;;7.30;3.00;;;;;;;18.74;56.83;99473.91;226316;1241;138742;-65
2022/10/26 11:25:10;;;;;;;7.80;3.20;;;;;;;18.82;56.79;99474.61;226367;1241;140028;-65
2022/10/26 11:30:18;;;;;;;7.70;3.30;;;;;;;18.92;56.85;99473.33;226345;1240;140412;-63
2022/10/26 11:35:55;;;;;;;7.00;3.10;;;;;;;18.98;56.40;99477.44;226120;1244;138873;-64
2022/10/26 11:41:29;;;;;;;7.10;3.30;;;;;;;19.05;56.18;99470.76;226500;1242;139523;-62
2022/10/26 11:46:42;;;;;;;13.00;3.90;;;;;;;19.15;56.22;99469.27;226379;1233;139426;-62
2022/10/26 11:52:13;;;;;;;5.90;3.30;;;;;;;19.25;56.35;99462.61;227326;1234;139493;-62
2022/10/26 11:57:17;;;;;;;7.50;3.60;;;;;;;19.36;55.99;99466.28;227321;1241;139604;-63
2022/10/26 12:02:23;;;;;;;8.00;3.20;;;;;;;19.45;55.53;99466.32;227455;1233;140350;-62
2022/10/26 12:07:30;;;;;;;7.20;2.70;;;;;;;19.55;55.41;99473.69;226648;1247;139030;-63
2022/10/26 12:12:46;;;;;;;15.10;3.60;;;;;;;19.63;55.15;99469.59;226268;1248;140033;-64
2022/10/26 12:17:55;;;;;;;8.10;3.00;;;;;;;19.68;55.01;99472.96;226286;1240;139866;-64
2022/10/26 12:22:58;;;;;;;10.50;2.50;;;;;;;19.76;54.95;99473.05;227357;1234;138841;-67
2022/10/26 12:28:01;;;;;;;7.60;2.40;;;;;;;19.85;54.96;99468.08;227315;1235;139110;-67
2022/10/26 12:33:28;;;;;;;9.30;2.60;;;;;;;19.95;54.93;99464.46;226145;1245;139092;-65
2022/10/26 12:38:32;;;;;;;5.10;2.20;;;;;;;20.06;54.48;99462.81;227118;1230;141134;-67
2022/10/26 12:43:35;;;;;;;5.60;2.30;;;;;;;20.16;54.09;99458.70;226585;1241;139117;-64
2022/10/26 12:48:41;;;;;;;10.20;2.20;;;;;;;20.23;53.80;99458.65;226490;1241;139531;-64
2022/10/26 12:54:17;;;;;;;8.00;2.20;;;;;;;20.30;53.47;99459.28;227403;1226;139563;-63
2022/10/26 12:59:29;;;;;;;11.10;2.20;;;;;;;20.24;52.79;99460.98;226346;1233;139619;-65
2022/10/26 13:04:56;;;;;;;11.50;2.10;;;;;;;20.12;52.55;99464.56;226610;1247;139334;-65
2022/10/26 13:10:03;;;;;;;15.50;1.90;;;;;;;19.96;52.12;99464.70;226598;1239;139293;-64
2022/10/26 13:15:38;;;;;;;8.50;2.10;;;;;;;19.78;51.73;99465.50;226629;1241;140671;-64
2022/10/26 13:20:53;;;;;;;4.90;2.50;;;;;;;19.62;51.72;99466.56;226167;1242;138702;-69
2022/10/26 13:26:02;;;;;;;3.20;1.30;;;;;;;19.49;51.67;99466.48;227381;1230;138844;-65
2022/10/26 13:31:10;;;;;;;6.30;1.60;;;;;;;19.43;51.61;99462.61;227516;1240;140155;-63
2022/10/26 13:36:22;;;;;;;4.10;1.40;;;;;;;19.36;51.36;99464.79;226482;1237;139508;-66
2022/10/26 13:41:44;;;;;;;2.70;1.10;;;;;;;19.31;51.31;99472.84;226439;1241;138793;-66
2022/10/26 13:46:52;;;;;;;6.30;1.30;;;;;;;19.30;51.18;99470.83;226597;1237;139170;-65
2022/10/26 13:52:01;;;;;;;3.00;1.10;;;;;;;19.30;50.96;99470.77;227423;1230;138915;-65
2022/10/26 13:57:06;;;;;;;5.50;1.40;;;;;;;19.32;50.71;99469.18;226499;1247;139114;-63
2022/10/26 14:02:24;;;;;;;5.30;1.30;;;;;;;19.35;50.51;99471.77;227455;1234;139491;-65
2022/10/26 14:07:38;;;;;;;3.70;1.50;;;;;;;19.34;50.12;99471.29;226807;1237;139660;-63
2022/10/26 14:12:41;;;;;;;4.10;1.40;;;;;;;19.33;50.03;99472.69;226645;1241;139749;-63
2022/10/26 14:17:49;;;;;;;4.10;1.40;;;;;;;19.32;50.07;99472.16;226256;1239;140049;-64
2022/10/26 14:22:53;;;;;;;3.60;1.40;;;;;;;19.31;50.03;99471.05;226374;1237;139700;-65
2022/10/26 14:27:56;;;;;;;2.70;1.50;;;;;;;19.31;50.07;99473.95;227462;1240;139215;-63
2022/10/26 14:32:59;;;;;;;4.20;1.60;;;;;;;19.31;50.05;99475.52;226343;1240;139034;-66
2022/10/26 14:38:13;;;;;;;8.30;2.30;;;;;;;19.30;49.98;99473.30;227456;1242;139526;-69
2022/10/26 14:43:21;;;;;;;7.60;1.50;;;;;;;19.28;49.90;99478.37;227524;1226;139220;-69
2022/10/26 14:48:31;;;;;;;5.90;1.60;;;;;;;19.24;49.93;99479.94;226303;1234;139278;-67
2022/10/26 14:53:39;;;;;;;2.80;1.20;;;;;;;19.21;49.81;99486.77;226565;1241;139778;-65
2022/10/26 14:58:43;;;;;;;4.70;1.90;;;;;;;19.18;49.91;99490.60;227388;1230;139345;-68
2022/10/26 15:03:51;;;;;;;11.30;2.20;;;;;;;19.16;49.91;99492.01;226652;1241;139287;-64
2022/10/26 15:08:57;;;;;;;3.20;1.60;;;;;;;19.07;50.10;99498.94;227495;1234;139029;-66
2022/10/26 15:14:00;;;;;;;;;;;;;;;18.91;50.20;99504.34;226351;1243;139101;-63
2022/10/26 15:19:09;;;;;;;12.20;2.60;;;;;;;18.72;50.52;99509.46;226466;1234;125834;-68
2022/10/26 15:24:35;;;;;;;10.60;2.30;;;;;;;18.52;50.80;99516.00;226558;1233;140165;-62
2022/10/26 15:29:43;;;;;;;6.90;2.50;;;;;;;18.33;51.03;99518.52;226508;1238;139880;-64
2022/10/26 15:35:04;;;;;;;;;;;;;;;18.16;51.39;99521.48;226478;1241;139424;-67
2022/10/26 15:40:07;;;;;;;19.70;3.40;;;;;;;17.95;51.59;99529.22;226791;1237;125990;-62
2022/10/26 15:45:19;;;;;;;14.40;4.00;;;;;;;17.78;52.00;99534.95;226532;1241;139179;-68
2022/10/26 15:50:26;;;;;;;8.00;2.90;;;;;;;17.62;52.21;99536.39;226511;1241;139757;-63
2022/10/26 15:55:29;;;;;;;12.50;3.40;;;;;;;17.46;52.52;99543.09;226751;1239;140477;-70
2022/10/26 16:00:32;;;;;;;15.70;3.50;;;;;;;17.32;52.80;99543.75;226695;1234;139999;-64
2022/10/26 16:05:35;;;;;;;16.10;3.80;;;;;;;17.18;53.13;99548.66;226456;1240;139472;-65
2022/10/26 16:10:38;;;;;;;18.10;4.10;;;;;;;17.04;53.43;99552.31;227388;1240;140375;-66
2022/10/26 16:15:42;;;;;;;13.60;3.80;;;;;;;16.91;53.70;99556.75;226530;1238;138971;-69
2022/10/26 16:20:45;;;;;;;12.30;3.90;;;;;;;16.76;53.89;99561.11;227455;1227;139198;-64
2022/10/26 16:25:48;;;;;;;13.40;4.60;;;;;;;16.63;54.18;99558.05;226602;1249;139412;-68
2022/10/26 16:30:57;;;;;;;17.30;5.10;;;;;;;16.51;54.71;99560.98;227483;1227;141085;-66
2022/10/26 16:36:02;;;;;;;22.30;5.30;;;;;;;16.38;54.77;99562.52;227284;1227;139402;-64
2022/10/26 16:41:10;;;;;;;23.80;5.90;;;;;;;16.27;55.11;99568.74;226492;1241;140097;-66
2022/10/26 16:46:18;;;;;;;24.80;5.60;;;;;;;16.14;55.28;99568.64;226584;1241;139309;-67
2022/10/26 16:51:27;;;;;;;20.20;4.70;;;;;;;16.03;55.64;99579.30;226564;1238;140505;-64
2022/10/26 16:56:30;;;;;;;16.00;4.70;;;;;;;15.94;55.94;99578.41;227234;1236;139564;-67
2022/10/26 17:01:34;;;;;;;21.70;5.40;;;;;;;15.85;56.31;99580.67;226231;1241;139417;-61
2022/10/26 17:06:37;;;;;;;16.70;5.40;;;;;;;15.76;56.36;99585.84;226091;1245;139228;-61
2022/10/26 17:11:40;;;;;;;18.00;6.20;;;;;;;15.67;56.61;99596.70;226231;1241;139537;-64
2022/10/26 17:16:43;;;;;;;19.30;5.40;;;;;;;15.59;56.87;99600.67;227242;1230;139625;-64
2022/10/26 17:21:46;;;;;;;35.90;6.10;;;;;;;15.47;56.98;99603.15;226535;1238;139444;-63
2022/10/26 17:26:49;;;;;;;28.10;6.20;;;;;;;15.37;57.32;99611.06;227412;1231;139296;-67
2022/10/26 17:31:53;;;;;;;25.80;6.20;;;;;;;15.28;57.48;99611.70;227344;1240;139932;-66
2022/10/26 17:36:56;;;;;;;31.40;6.40;;;;;;;15.24;57.68;99620.54;227316;1234;140459;-63
2022/10/26 17:41:59;;;;;;;29.70;8.00;;;;;;;15.24;57.96;99624.52;226213;1240;139244;-64
2022/10/26 17:47:02;;;;;;;32.30;7.40;;;;;;;15.25;58.21;99630.54;226273;1235;139636;-68
2022/10/26 17:52:05;;;;;;;21.50;6.20;;;;;;;15.20;58.25;99636.06;226265;1241;139423;-63
2022/10/26 17:57:08;;;;;;;158.80;95.00;;;;;;;15.17;58.57;99641.30;226393;1234;139721;-68
2022/10/26 18:02:11;;;;;;;23.10;10.20;;;;;;;15.13;58.50;99642.45;226225;1241;139999;-66
2022/10/26 18:07:14;;;;;;;24.10;7.90;;;;;;;15.04;58.52;99647.92;226203;1234;139650;-71
2022/10/26 18:12:17;;;;;;;22.10;7.40;;;;;;;14.91;58.60;99647.75;227208;1234;138854;-67
2022/10/26 18:17:20;;;;;;;23.50;8.00;;;;;;;14.78;58.75;99649.70;226280;1241;139362;-64
2022/10/26 18:22:23;;;;;;;20.00;7.70;;;;;;;14.66;58.88;99650.73;226234;1234;139260;-65
2022/10/26 18:27:26;;;;;;;52.00;27.90;;;;;;;14.56;59.08;99656.42;227308;1234;140555;-65
2022/10/26 18:32:29;;;;;;;33.60;13.30;;;;;;;14.53;59.43;99661.08;226142;1244;139314;-64
2022/10/26 18:37:32;;;;;;;25.40;9.40;;;;;;;14.46;59.32;99665.29;227326;1231;139902;-65
2022/10/26 18:42:36;;;;;;;15.80;9.50;;;;;;;14.40;59.28;99670.70;226385;1243;140160;-63
2022/10/26 18:47:39;;;;;;;22.10;10.30;;;;;;;14.34;59.49;99675.02;226887;1214;141530;-63
2022/10/26 18:52:44;;;;;;;23.30;10.40;;;;;;;14.28;59.44;99676.33;226020;1221;139970;-63
2022/10/26 18:57:46;;;;;;;35.00;20.60;;;;;;;14.23;59.69;99681.16;225855;1240;140468;-64
2022/10/26 19:02:50;;;;;;;32.50;16.10;;;;;;;14.18;59.98;99686.61;227277;1234;139768;-66
2022/10/26 19:07:54;;;;;;;26.80;10.90;;;;;;;14.15;60.02;99690.79;226239;1241;139347;-65
2022/10/26 19:12:57;;;;;;;25.20;11.70;;;;;;;14.04;60.00;99696.48;227358;1241;140109;-61
2022/10/26 19:18:01;;;;;;;25.00;11.90;;;;;;;13.94;59.92;99704.09;226028;1241;139852;-63
2022/10/26 19:23:04;;;;;;;176.10;117.40;;;;;;;13.84;60.18;99709.55;226937;1235;140358;-60
2022/10/26 19:28:07;;;;;;;34.80;18.20;;;;;;;13.79;60.51;99717.73;226070;1245;139861;-61
2022/10/26 19:33:10;;;;;;;26.10;12.70;;;;;;;13.74;60.58;99722.54;226218;1245;139747;-62
2022/10/26 19:38:13;;;;;;;34.00;12.40;;;;;;;13.71;60.66;99728.21;226029;1241;140232;-60
2022/10/26 19:43:16;;;;;;;210.80;157.90;;;;;;;13.71;60.64;99731.25;225984;1244;140843;-62
2022/10/26 19:48:19;;;;;;;55.20;29.70;;;;;;;13.71;60.84;99730.89;226016;1243;139836;-61
2022/10/26 19:53:23;;;;;;;26.70;12.00;;;;;;;13.71;60.82;99736.97;225904;1245;140052;-62
2022/10/26 19:58:28;;;;;;;29.40;12.90;;;;;;;13.64;60.55;99743.50;227206;1235;139939;-61
2022/10/26 20:03:33;;;;;;;24.50;12.20;;;;;;;13.56;60.55;99748.11;226202;1243;140823;-61
2022/10/26 20:08:36;;;;;;;27.20;12.50;;;;;;;13.45;60.73;99746.78;225900;1245;139744;-61
2022/10/26 20:13:39;;;;;;;27.20;13.10;;;;;;;13.37;60.61;99752.66;226253;1245;139420;-60
2022/10/26 20:18:42;;;;;;;27.80;12.50;;;;;;;13.29;60.64;99755.16;227321;1238;139566;-60
2022/10/26 20:23:50;;;;;;;25.70;12.00;;;;;;;13.19;60.82;99757.31;227031;1235;140139;-62
2022/10/26 20:28:53;;;;;;;27.90;11.70;;;;;;;13.10;60.89;99761.96;226171;1239;139597;-60
2022/10/26 20:33:56;;;;;;;21.80;11.40;;;;;;;13.01;61.08;99769.80;226055;1243;140875;-60
2022/10/26 20:39:00;;;;;;;27.20;12.10;;;;;;;12.99;61.40;99770.46;225918;1238;140780;-64
2022/10/26 20:44:03;;;;;;;24.20;11.30;;;;;;;13.01;61.50;99776.04;226255;1241;139867;-62
2022/10/26 20:49:08;;;;;;;22.00;11.90;;;;;;;13.00;61.49;99779.45;226196;1241;139986;-60
2022/10/26 20:54:18;;;;;;;25.90;11.70;;;;;;;13.00;61.59;99783.05;226188;1242;139503;-60
2022/10/26 20:59:24;;;;;;;21.60;12.00;;;;;;;13.13;62.40;99785.65;225956;1242;139365;-60
2022/10/26 21:04:27;;;;;;;25.10;12.80;;;;;;;13.30;62.25;99792.69;227250;1219;139631;-60
2022/10/26 21:09:30;;;;;;;31.50;12.90;;;;;;;13.34;61.80;99798.13;226042;1237;140961;-62
2022/10/26 21:14:39;;;;;;;38.90;13.50;;;;;;;13.27;61.54;99801.05;226293;1245;140123;-61
2022/10/26 21:19:42;;;;;;;32.50;14.30;;;;;;;13.13;61.19;99798.48;226102;1234;140369;-60
2022/10/26 21:24:46;;;;;;;28.60;13.80;;;;;;;12.97;61.13;99799.25;226216;1238;139641;-63
2022/10/26 21:29:49;;;;;;;32.10;14.10;;;;;;;12.83;61.15;99802.60;227316;1233;139395;-60
2022/10/26 21:34:54;;;;;;;29.10;14.20;;;;;;;12.70;61.16;99806.04;226292;1239;139740;-61
2022/10/26 21:39:57;;;;;;;26.50;13.90;;;;;;;12.65;61.48;99803.46;226013;1244;141753;-61
2022/10/26 21:45:00;;;;;;;31.20;14.10;;;;;;;12.64;61.60;99809.95;226201;1244;139962;-62
2022/10/26 21:50:03;;;;;;;24.50;15.00;;;;;;;12.64;61.85;99814.75;226025;1240;141258;-62
2022/10/26 21:55:07;;;;;;;28.10;15.10;;;;;;;12.76;62.67;99814.91;226394;1242;139679;-61
2022/10/26 22:00:10;;;;;;;27.20;14.50;;;;;;;12.93;62.89;99816.94;226892;1231;139012;-62
2022/10/26 22:05:14;;;;;;;34.00;13.80;;;;;;;12.98;62.48;99822.70;225881;1236;141879;-62
2022/10/26 22:10:17;;;;;;;26.00;14.10;;;;;;;12.93;61.96;99823.73;227049;1231;139946;-64
2022/10/26 22:15:20;;;;;;;33.40;13.80;;;;;;;12.80;61.92;99826.27;227300;1236;139693;-62
2022/10/26 22:20:23;;;;;;;31.30;13.60;;;;;;;12.69;61.49;99828.67;224449;1237;139631;-63
2022/10/26 22:25:27;;;;;;;26.40;13.30;;;;;;;12.59;61.73;99828.55;224341;1236;139491;-63
2022/10/26 22:30:31;;;;;;;29.40;13.60;;;;;;;12.47;61.49;99830.86;224324;1235;140297;-65
2022/10/26 22:35:34;;;;;;;28.30;13.80;;;;;;;12.33;61.48;99834.86;224445;1233;139797;-65
2022/10/26 22:40:37;;;;;;;28.10;13.80;;;;;;;12.25;61.73;99834.03;223869;1236;140101;-64
2022/10/26 22:45:41;;;;;;;24.50;14.90;;;;;;;12.22;61.97;99834.39;224257;1237;140296;-63
2022/10/26 22:50:45;;;;;;;33.30;14.70;;;;;;;12.25;62.24;99834.60;224219;1235;139445;-62
2022/10/26 22:55:50;;;;;;;28.00;14.70;;;;;;;12.20;62.48;99836.78;224121;1237;138962;-63
2022/10/26 23:01:09;;;;;;;29.60;14.40;;;;;;;12.20;62.58;99840.90;223952;1235;139822;-62
2022/10/26 23:06:19;;;;;;;27.60;15.00;;;;;;;12.15;62.67;99843.14;223990;1236;139774;-62
2022/10/26 23:11:25;;;;;;;31.50;16.10;;;;;;;12.12;63.01;99841.92;223916;1234;139729;-62
2022/10/26 23:16:30;;;;;;;38.00;17.70;;;;;;;12.12;63.24;99837.83;223773;1235;139810;-65